sensor_id;sensor_type;location;lat;lon;timestamp;pressure;altitude;pressure_sealevel;temperature;humidity
44872;BME280;30602;51.060;17.226;2022-12-07T00:00:18;101142.46;;;2.08;100.00
44872;BME280;30602;51.060;17.226;2022-12-07T00:04:00;101141.79;;;1.99;100.00
44872;BME280;30602;51.060;17.226;2022-12-07T00:07:13;101141.02;;;2.07;100.00
44872;BME280;30602;51.060;17.226;2022-12-07T00:10:43;101141.40;;;2.01;100.00
44872;BME280;30602;51.060;17.226;2022-12-07T00:14:30;101135.13;;;2.10;100.00
44872;BME280;30602;51.060;17.226;2022-12-07T00:18:38;101136.62;;;2.01;100.00
44872;BME280;30602;51.060;17.226;2022-12-07T00:21:50;101137.38;;;1.98;100.00
44872;BME280;30602;51.060;17.226;2022-12-07T00:25:11;101134.80;;;2.06;100.00
44872;BME280;30602;51.060;17.226;2022-12-07T00:32:34;101128.06;;;2.06;100.00
44872;BME280;30602;51.060;17.226;2022-12-07T00:35:45;101126.12;;;2.03;100.00
44872;BME280;30602;51.060;17.226;2022-12-07T00:39:20;101120.63;;;1.98;100.00
44872;BME280;30602;51.060;17.226;2022-12-07T00:42:29;101113.36;;;2.04;100.00
44872;BME280;30602;51.060;17.226;2022-12-07T00:46:23;101111.43;;;2.02;100.00
44872;BME280;30602;51.060;17.226;2022-12-07T00:49:43;101109.12;;;2.09;100.00
44872;BME280;30602;51.060;17.226;2022-12-07T00:57:22;101116.51;;;1.87;100.00
44872;BME280;30602;51.060;17.226;2022-12-07T01:01:05;101102.88;;;1.87;100.00
44872;BME280;30602;51.060;17.226;2022-12-07T01:04:35;101121.02;;;2.00;100.00
44872;BME280;30602;51.060;17.226;2022-12-07T01:08:18;101118.73;;;1.86;100.00
44872;BME280;30602;51.060;17.226;2022-12-07T01:12:36;101116.92;;;1.87;100.00
44872;BME280;30602;51.060;17.226;2022-12-07T01:16:01;101109.36;;;1.81;100.00
44872;BME280;30602;51.060;17.226;2022-12-07T01:19:54;101110.75;;;1.97;100.00
44872;BME280;30602;51.060;17.226;2022-12-07T01:23:02;101112.70;;;1.95;100.00
44872;BME280;30602;51.060;17.226;2022-12-07T01:26:42;101116.42;;;1.97;100.00
44872;BME280;30602;51.060;17.226;2022-12-07T01:30:41;101111.23;;;1.81;100.00
44872;BME280;30602;51.060;17.226;2022-12-07T01:34:43;101113.07;;;1.84;100.00
44872;BME280;30602;51.060;17.226;2022-12-07T01:38:15;101114.22;;;1.82;100.00
44872;BME280;30602;51.060;17.226;2022-12-07T01:41:32;101111.32;;;1.80;100.00
44872;BME280;30602;51.060;17.226;2022-12-07T01:53:09;101110.10;;;1.99;100.00
44872;BME280;30602;51.060;17.226;2022-12-07T01:57:17;101111.78;;;1.87;100.00
44872;BME280;30602;51.060;17.226;2022-12-07T02:00:41;101114.80;;;1.83;100.00
44872;BME280;30602;51.060;17.226;2022-12-07T02:03:52;101115.43;;;1.75;100.00
44872;BME280;30602;51.060;17.226;2022-12-07T02:07:22;101119.48;;;1.66;100.00
44872;BME280;30602;51.060;17.226;2022-12-07T02:11:30;101117.75;;;1.90;100.00
44872;BME280;30602;51.060;17.226;2022-12-07T02:15:04;101114.01;;;1.84;100.00
44872;BME280;30602;51.060;17.226;2022-12-07T02:36:43;101108.73;;;1.77;100.00
44872;BME280;30602;51.060;17.226;2022-12-07T02:40:32;101107.25;;;1.79;100.00
44872;BME280;30602;51.060;17.226;2022-12-07T02:48:05;101108.85;;;1.74;100.00
44872;BME280;30602;51.060;17.226;2022-12-07T02:51:18;101109.94;;;1.86;100.00
44872;BME280;30602;51.060;17.226;2022-12-07T02:54:52;101108.47;;;1.79;100.00
44872;BME280;30602;51.060;17.226;2022-12-07T02:59:02;101111.00;;;1.80;100.00
44872;BME280;30602;51.060;17.226;2022-12-07T03:18:03;101108.48;;;1.63;100.00
44872;BME280;30602;51.060;17.226;2022-12-07T03:21:46;101103.65;;;1.57;100.00
44872;BME280;30602;51.060;17.226;2022-12-07T03:25:34;101104.18;;;1.67;100.00
44872;BME280;30602;51.060;17.226;2022-12-07T03:28:54;101099.62;;;1.61;100.00
44872;BME280;30602;51.060;17.226;2022-12-07T03:35:54;101098.11;;;1.42;100.00
44872;BME280;30602;51.060;17.226;2022-12-07T03:40:15;101095.13;;;1.58;100.00
44872;BME280;30602;51.060;17.226;2022-12-07T03:45:06;101088.55;;;1.65;100.00
44872;BME280;30602;51.060;17.226;2022-12-07T03:48:40;101085.28;;;1.72;100.00
44872;BME280;30602;51.060;17.226;2022-12-07T03:53:08;101077.68;;;1.89;100.00
44872;BME280;30602;51.060;17.226;2022-12-07T03:56:44;101079.88;;;1.65;100.00
44872;BME280;30602;51.060;17.226;2022-12-07T04:00:15;101077.73;;;1.56;100.00
44872;BME280;30602;51.060;17.226;2022-12-07T04:03:46;101075.77;;;1.69;100.00
44872;BME280;30602;51.060;17.226;2022-12-07T04:06:57;101076.81;;;1.80;100.00
44872;BME280;30602;51.060;17.226;2022-12-07T04:10:19;101061.18;;;1.61;100.00
44872;BME280;30602;51.060;17.226;2022-12-07T04:13:31;101081.80;;;1.65;100.00
44872;BME280;30602;51.060;17.226;2022-12-07T04:16:56;101081.02;;;1.74;100.00
44872;BME280;30602;51.060;17.226;2022-12-07T04:20:27;101082.41;;;1.73;100.00
44872;BME280;30602;51.060;17.226;2022-12-07T04:23:49;101087.61;;;1.59;100.00
44872;BME280;30602;51.060;17.226;2022-12-07T04:27:40;101084.54;;;1.66;100.00
44872;BME280;30602;51.060;17.226;2022-12-07T04:31:32;101084.09;;;1.63;100.00
44872;BME280;30602;51.060;17.226;2022-12-07T04:34:42;101081.25;;;1.60;100.00
44872;BME280;30602;51.060;17.226;2022-12-07T04:38:25;101078.90;;;1.64;100.00
44872;BME280;30602;51.060;17.226;2022-12-07T04:42:08;101078.89;;;1.52;100.00
44872;BME280;30602;51.060;17.226;2022-12-07T04:45:48;101081.15;;;1.63;100.00
44872;BME280;30602;51.060;17.226;2022-12-07T04:49:36;101079.09;;;1.57;100.00
44872;BME280;30602;51.060;17.226;2022-12-07T04:52:46;101078.48;;;1.76;100.00
44872;BME280;30602;51.060;17.226;2022-12-07T04:59:51;101079.06;;;1.77;100.00
44872;BME280;30602;51.060;17.226;2022-12-07T05:04:14;101076.39;;;1.81;100.00
44872;BME280;30602;51.060;17.226;2022-12-07T05:12:21;101072.12;;;1.63;100.00
44872;BME280;30602;51.060;17.226;2022-12-07T05:15:33;101068.35;;;1.55;100.00
44872;BME280;30602;51.060;17.226;2022-12-07T05:19:05;101068.58;;;1.65;100.00
44872;BME280;30602;51.060;17.226;2022-12-07T05:22:57;101071.20;;;1.69;100.00
44872;BME280;30602;51.060;17.226;2022-12-07T05:26:05;101071.58;;;1.53;100.00
44872;BME280;30602;51.060;17.226;2022-12-07T05:29:25;101074.18;;;1.56;100.00
44872;BME280;30602;51.060;17.226;2022-12-07T05:32:55;101070.74;;;1.84;100.00
44872;BME280;30602;51.060;17.226;2022-12-07T05:36:20;101067.97;;;1.92;100.00
44872;BME280;30602;51.060;17.226;2022-12-07T05:40:16;101071.45;;;1.95;100.00
44872;BME280;30602;51.060;17.226;2022-12-07T05:43:27;101072.38;;;2.01;100.00
44872;BME280;30602;51.060;17.226;2022-12-07T05:46:48;101075.22;;;1.95;100.00
44872;BME280;30602;51.060;17.226;2022-12-07T05:50:41;101078.21;;;1.94;100.00
44872;BME280;30602;51.060;17.226;2022-12-07T05:54:11;101082.50;;;1.95;100.00
44872;BME280;30602;51.060;17.226;2022-12-07T05:57:40;101075.96;;;2.00;100.00
44872;BME280;30602;51.060;17.226;2022-12-07T06:05:08;101073.86;;;1.94;100.00
44872;BME280;30602;51.060;17.226;2022-12-07T06:09:12;101073.71;;;1.86;100.00
44872;BME280;30602;51.060;17.226;2022-12-07T06:13:02;101069.55;;;1.86;100.00
44872;BME280;30602;51.060;17.226;2022-12-07T06:16:15;101065.22;;;1.75;100.00
44872;BME280;30602;51.060;17.226;2022-12-07T06:19:36;101067.77;;;1.81;100.00
44872;BME280;30602;51.060;17.226;2022-12-07T06:23:05;101070.97;;;1.68;100.00
44872;BME280;30602;51.060;17.226;2022-12-07T06:26:57;101070.70;;;1.67;100.00
44872;BME280;30602;51.060;17.226;2022-12-07T06:30:42;101075.15;;;1.84;100.00
44872;BME280;30602;51.060;17.226;2022-12-07T06:34:16;101077.95;;;1.90;100.00
44872;BME280;30602;51.060;17.226;2022-12-07T06:38:18;101079.90;;;1.78;100.00
44872;BME280;30602;51.060;17.226;2022-12-07T06:41:30;101084.73;;;1.63;99.98
44872;BME280;30602;51.060;17.226;2022-12-07T06:45:32;101085.31;;;1.75;100.00
44872;BME280;30602;51.060;17.226;2022-12-07T06:48:51;101081.35;;;1.71;99.45
44872;BME280;30602;51.060;17.226;2022-12-07T06:52:13;101081.31;;;1.61;99.36
44872;BME280;30602;51.060;17.226;2022-12-07T06:55:25;101080.17;;;1.72;99.60
44872;BME280;30602;51.060;17.226;2022-12-07T07:03:13;101078.95;;;1.78;98.87
44872;BME280;30602;51.060;17.226;2022-12-07T07:06:27;101077.06;;;1.71;99.15
44872;BME280;30602;51.060;17.226;2022-12-07T07:10:30;101077.52;;;1.79;98.89
44872;BME280;30602;51.060;17.226;2022-12-07T07:13:40;101078.47;;;1.86;97.96
44872;BME280;30602;51.060;17.226;2022-12-07T07:16:55;101068.38;;;1.86;97.68
44872;BME280;30602;51.060;17.226;2022-12-07T07:20:08;101071.65;;;1.83;96.79
44872;BME280;30602;51.060;17.226;2022-12-07T07:23:49;101068.57;;;1.86;96.96
44872;BME280;30602;51.060;17.226;2022-12-07T07:27:22;101073.14;;;1.95;96.54
44872;BME280;30602;51.060;17.226;2022-12-07T07:30:58;101076.76;;;1.97;96.69
44872;BME280;30602;51.060;17.226;2022-12-07T07:34:51;101072.45;;;2.04;96.44
44872;BME280;30602;51.060;17.226;2022-12-07T07:39:02;101069.04;;;1.87;95.92
44872;BME280;30602;51.060;17.226;2022-12-07T07:42:19;101064.64;;;1.86;95.54
44872;BME280;30602;51.060;17.226;2022-12-07T07:46:13;101062.63;;;1.83;95.64
44872;BME280;30602;51.060;17.226;2022-12-07T07:49:44;101065.99;;;1.80;95.67
44872;BME280;30602;51.060;17.226;2022-12-07T07:52:57;101065.28;;;2.03;95.69
44872;BME280;30602;51.060;17.226;2022-12-07T07:56:30;101059.60;;;2.04;95.10
44872;BME280;30602;51.060;17.226;2022-12-07T08:00:14;101065.01;;;1.94;95.25
44872;BME280;30602;51.060;17.226;2022-12-07T08:03:52;101063.40;;;2.00;94.28
44872;BME280;30602;51.060;17.226;2022-12-07T08:08:02;101068.12;;;1.98;93.24
44872;BME280;30602;51.060;17.226;2022-12-07T08:11:18;101074.65;;;2.16;93.67
44872;BME280;30602;51.060;17.226;2022-12-07T08:14:40;101077.09;;;2.15;93.35
44872;BME280;30602;51.060;17.226;2022-12-07T08:18:46;101074.14;;;2.14;92.84
44872;BME280;30602;51.060;17.226;2022-12-07T08:22:02;101078.39;;;2.02;92.50
44872;BME280;30602;51.060;17.226;2022-12-07T08:25:18;101078.35;;;2.18;93.59
44872;BME280;30602;51.060;17.226;2022-12-07T08:29:13;101081.75;;;2.11;93.18
44872;BME280;30602;51.060;17.226;2022-12-07T08:32:51;101073.84;;;2.16;93.44
44872;BME280;30602;51.060;17.226;2022-12-07T08:36:08;101083.03;;;2.15;92.80
44872;BME280;30602;51.060;17.226;2022-12-07T08:40:07;101079.30;;;2.03;93.22
44872;BME280;30602;51.060;17.226;2022-12-07T08:44:08;101080.87;;;2.12;93.58
44872;BME280;30602;51.060;17.226;2022-12-07T08:47:26;101078.63;;;2.12;93.19
44872;BME280;30602;51.060;17.226;2022-12-07T08:50:44;101075.26;;;2.20;93.77
44872;BME280;30602;51.060;17.226;2022-12-07T08:54:25;101072.78;;;2.28;93.29
44872;BME280;30602;51.060;17.226;2022-12-07T08:57:40;101066.44;;;2.47;93.68
44872;BME280;30602;51.060;17.226;2022-12-07T09:01:01;101062.68;;;2.52;93.35
44872;BME280;30602;51.060;17.226;2022-12-07T09:04:34;101053.80;;;2.61;93.12
44872;BME280;30602;51.060;17.226;2022-12-07T09:07:51;101049.34;;;2.60;93.13
44872;BME280;30602;51.060;17.226;2022-12-07T09:11:30;101049.40;;;2.56;92.41
44872;BME280;30602;51.060;17.226;2022-12-07T09:15:07;101041.91;;;2.71;92.85
44872;BME280;30602;51.060;17.226;2022-12-07T09:18:48;101041.96;;;2.84;91.97
44872;BME280;30602;51.060;17.226;2022-12-07T09:22:21;101036.41;;;2.93;91.63
44872;BME280;30602;51.060;17.226;2022-12-07T09:25:53;101033.77;;;3.02;91.33
44872;BME280;30602;51.060;17.226;2022-12-07T09:29:51;101016.55;;;3.08;91.21
44872;BME280;30602;51.060;17.226;2022-12-07T09:33:32;101022.49;;;3.13;89.84
44872;BME280;30602;51.060;17.226;2022-12-07T09:37:06;101013.19;;;3.17;89.40
44872;BME280;30602;51.060;17.226;2022-12-07T09:40:40;101011.99;;;3.28;88.02
44872;BME280;30602;51.060;17.226;2022-12-07T09:44:32;101010.45;;;3.34;87.77
44872;BME280;30602;51.060;17.226;2022-12-07T09:47:56;100996.99;;;3.49;86.71
44872;BME280;30602;51.060;17.226;2022-12-07T09:51:34;101001.53;;;3.48;85.00
44872;BME280;30602;51.060;17.226;2022-12-07T09:55:36;101000.42;;;3.45;84.28
44872;BME280;30602;51.060;17.226;2022-12-07T09:58:48;100997.11;;;3.48;84.47
44872;BME280;30602;51.060;17.226;2022-12-07T10:05:53;100989.70;;;3.61;84.38
44872;BME280;30602;51.060;17.226;2022-12-07T10:09:41;100992.90;;;3.56;83.81
44872;BME280;30602;51.060;17.226;2022-12-07T10:13:19;100980.34;;;3.63;84.63
44872;BME280;30602;51.060;17.226;2022-12-07T10:17:37;100973.94;;;3.77;84.03
44872;BME280;30602;51.060;17.226;2022-12-07T10:24:25;100961.64;;;4.02;85.79
44872;BME280;30602;51.060;17.226;2022-12-07T10:28:19;100945.54;;;4.10;85.76
44872;BME280;30602;51.060;17.226;2022-12-07T10:31:30;100947.54;;;4.21;84.78
44872;BME280;30602;51.060;17.226;2022-12-07T10:35:20;100938.34;;;4.16;84.15
44872;BME280;30602;51.060;17.226;2022-12-07T10:39:03;100939.80;;;4.03;82.40
44872;BME280;30602;51.060;17.226;2022-12-07T10:46:37;100945.50;;;3.94;82.19
44872;BME280;30602;51.060;17.226;2022-12-07T11:05:56;100936.21;;;3.87;85.94
44872;BME280;30602;51.060;17.226;2022-12-07T11:27:52;100940.59;;;3.52;86.99
44872;BME280;30602;51.060;17.226;2022-12-07T11:31:28;100932.60;;;3.46;86.96
44872;BME280;30602;51.060;17.226;2022-12-07T11:39:04;100922.73;;;3.61;87.26
44872;BME280;30602;51.060;17.226;2022-12-07T11:42:37;100925.03;;;3.56;87.46
44872;BME280;30602;51.060;17.226;2022-12-07T11:52:59;100915.73;;;3.57;86.78
44872;BME280;30602;51.060;17.226;2022-12-07T12:04:32;100920.93;;;3.67;86.25
44872;BME280;30602;51.060;17.226;2022-12-07T12:15:30;100919.45;;;3.50;86.14
44872;BME280;30602;51.060;17.226;2022-12-07T12:18:51;100926.53;;;3.34;86.85
44872;BME280;30602;51.060;17.226;2022-12-07T12:22:20;100921.32;;;3.21;88.90
44872;BME280;30602;51.060;17.226;2022-12-07T12:25:41;100920.59;;;3.23;89.28
44872;BME280;30602;51.060;17.226;2022-12-07T12:32:41;100926.05;;;3.25;89.59
44872;BME280;30602;51.060;17.226;2022-12-07T12:36:46;100916.84;;;3.24;89.15
44872;BME280;30602;51.060;17.226;2022-12-07T12:53:47;100902.30;;;3.48;86.99
44872;BME280;30602;51.060;17.226;2022-12-07T12:57:27;100906.20;;;3.40;86.38
44872;BME280;30602;51.060;17.226;2022-12-07T13:04:55;100905.56;;;3.35;86.10
44872;BME280;30602;51.060;17.226;2022-12-07T13:08:40;100904.87;;;3.30;85.95
44872;BME280;30602;51.060;17.226;2022-12-07T13:12:16;100916.02;;;3.39;86.19
44872;BME280;30602;51.060;17.226;2022-12-07T13:16:39;100918.16;;;3.32;87.24
44872;BME280;30602;51.060;17.226;2022-12-07T13:20:41;100914.22;;;3.41;87.79
44872;BME280;30602;51.060;17.226;2022-12-07T13:24:14;100914.35;;;3.37;88.01
44872;BME280;30602;51.060;17.226;2022-12-07T13:31:34;100914.91;;;3.39;87.26
44872;BME280;30602;51.060;17.226;2022-12-07T13:38:35;100918.98;;;3.40;87.05
44872;BME280;30602;51.060;17.226;2022-12-07T13:42:57;100912.51;;;3.26;87.64
44872;BME280;30602;51.060;17.226;2022-12-07T13:46:11;100926.13;;;3.38;87.89
44872;BME280;30602;51.060;17.226;2022-12-07T13:49:33;100921.31;;;3.31;88.53
44872;BME280;30602;51.060;17.226;2022-12-07T13:53:30;100923.48;;;3.30;87.30
44872;BME280;30602;51.060;17.226;2022-12-07T13:57:34;100922.83;;;3.19;87.33
44872;BME280;30602;51.060;17.226;2022-12-07T14:00:59;100921.59;;;3.25;86.13
44872;BME280;30602;51.060;17.226;2022-12-07T14:15:34;100917.79;;;3.23;86.43
44872;BME280;30602;51.060;17.226;2022-12-07T14:22:55;100909.30;;;3.34;86.28
44872;BME280;30602;51.060;17.226;2022-12-07T14:26:49;100905.08;;;3.25;86.35
44872;BME280;30602;51.060;17.226;2022-12-07T14:30:33;100911.23;;;3.24;85.80
44872;BME280;30602;51.060;17.226;2022-12-07T14:33:47;100909.58;;;3.27;85.88
44872;BME280;30602;51.060;17.226;2022-12-07T14:36:57;100908.47;;;3.25;85.82
44872;BME280;30602;51.060;17.226;2022-12-07T14:41:22;100908.57;;;3.11;86.02
44872;BME280;30602;51.060;17.226;2022-12-07T14:45:16;100911.77;;;3.16;85.68
44872;BME280;30602;51.060;17.226;2022-12-07T14:48:27;100915.48;;;3.13;85.19
44872;BME280;30602;51.060;17.226;2022-12-07T14:55:32;100913.55;;;3.02;85.63
44872;BME280;30602;51.060;17.226;2022-12-07T14:59:24;100913.27;;;2.98;85.76
44872;BME280;30602;51.060;17.226;2022-12-07T15:02:56;100922.63;;;2.81;85.66
44872;BME280;30602;51.060;17.226;2022-12-07T15:06:14;100923.45;;;2.85;85.60
44872;BME280;30602;51.060;17.226;2022-12-07T15:10:18;100927.73;;;2.98;85.22
44872;BME280;30602;51.060;17.226;2022-12-07T15:13:49;100932.05;;;2.97;84.43
44872;BME280;30602;51.060;17.226;2022-12-07T15:18:17;100936.28;;;2.94;84.60
44872;BME280;30602;51.060;17.226;2022-12-07T15:22:26;100937.98;;;2.90;84.89
44872;BME280;30602;51.060;17.226;2022-12-07T15:26:11;100939.06;;;2.85;84.88
44872;BME280;30602;51.060;17.226;2022-12-07T15:29:50;100930.13;;;2.78;84.88
44872;BME280;30602;51.060;17.226;2022-12-07T15:33:19;100943.36;;;2.74;85.15
44872;BME280;30602;51.060;17.226;2022-12-07T15:36:53;100929.44;;;2.62;85.33
44872;BME280;30602;51.060;17.226;2022-12-07T15:40:06;100942.18;;;2.67;85.47
44872;BME280;30602;51.060;17.226;2022-12-07T15:43:39;100947.05;;;2.65;85.99
44872;BME280;30602;51.060;17.226;2022-12-07T15:47:37;100950.18;;;2.75;85.80
44872;BME280;30602;51.060;17.226;2022-12-07T15:51:09;100949.12;;;2.74;85.82
44872;BME280;30602;51.060;17.226;2022-12-07T15:54:39;100945.58;;;2.78;85.64
44872;BME280;30602;51.060;17.226;2022-12-07T15:58:03;100946.36;;;2.80;85.78
44872;BME280;30602;51.060;17.226;2022-12-07T16:01:32;100941.59;;;2.93;85.22
44872;BME280;30602;51.060;17.226;2022-12-07T16:08:36;100945.09;;;2.83;84.69
44872;BME280;30602;51.060;17.226;2022-12-07T16:12:10;100945.13;;;2.81;85.16
44872;BME280;30602;51.060;17.226;2022-12-07T16:15:46;100945.95;;;2.86;85.37
44872;BME280;30602;51.060;17.226;2022-12-07T16:19:36;100948.47;;;2.79;85.87
44872;BME280;30602;51.060;17.226;2022-12-07T16:22:59;100952.70;;;2.68;86.33
44872;BME280;30602;51.060;17.226;2022-12-07T16:26:39;100950.16;;;2.67;86.63
44872;BME280;30602;51.060;17.226;2022-12-07T16:30:17;100949.09;;;2.69;87.01
44872;BME280;30602;51.060;17.226;2022-12-07T16:33:40;100951.91;;;2.63;87.38
44872;BME280;30602;51.060;17.226;2022-12-07T16:37:15;100951.35;;;2.63;87.80
44872;BME280;30602;51.060;17.226;2022-12-07T16:44:52;100953.40;;;2.60;87.98
44872;BME280;30602;51.060;17.226;2022-12-07T16:48:30;100954.71;;;2.65;87.61
44872;BME280;30602;51.060;17.226;2022-12-07T16:52:12;100956.05;;;2.64;87.72
44872;BME280;30602;51.060;17.226;2022-12-07T16:56:14;100957.45;;;2.57;87.63
44872;BME280;30602;51.060;17.226;2022-12-07T16:59:39;100951.41;;;2.38;87.68
44872;BME280;30602;51.060;17.226;2022-12-07T17:02:49;100968.49;;;2.38;87.97
44872;BME280;30602;51.060;17.226;2022-12-07T17:06:00;100967.73;;;2.33;87.95
44872;BME280;30602;51.060;17.226;2022-12-07T17:09:33;100966.78;;;2.24;88.49
44872;BME280;30602;51.060;17.226;2022-12-07T17:13:30;100966.58;;;2.20;88.68
44872;BME280;30602;51.060;17.226;2022-12-07T17:17:05;100964.20;;;2.10;88.82
44872;BME280;30602;51.060;17.226;2022-12-07T17:20:36;100966.26;;;2.05;89.15
44872;BME280;30602;51.060;17.226;2022-12-07T17:24:11;100967.70;;;2.01;89.34
44872;BME280;30602;51.060;17.226;2022-12-07T17:27:24;100969.98;;;1.98;89.79
44872;BME280;30602;51.060;17.226;2022-12-07T17:31:17;100974.22;;;1.98;89.77
44872;BME280;30602;51.060;17.226;2022-12-07T17:34:46;100970.24;;;1.98;89.99
44872;BME280;30602;51.060;17.226;2022-12-07T17:38:32;100968.58;;;2.03;89.95
44872;BME280;30602;51.060;17.226;2022-12-07T17:42:09;100974.12;;;1.93;89.65
44872;BME280;30602;51.060;17.226;2022-12-07T17:45:29;100966.50;;;1.92;90.27
44872;BME280;30602;51.060;17.226;2022-12-07T17:49:06;100965.51;;;1.84;90.65
44872;BME280;30602;51.060;17.226;2022-12-07T17:52:44;100971.65;;;1.81;91.01
44872;BME280;30602;51.060;17.226;2022-12-07T17:56:24;100969.19;;;1.79;91.00
44872;BME280;30602;51.060;17.226;2022-12-07T17:59:36;100967.47;;;1.60;91.70
44872;BME280;30602;51.060;17.226;2022-12-07T18:03:22;100972.89;;;1.53;91.74
44872;BME280;30602;51.060;17.226;2022-12-07T18:07:16;100973.11;;;1.52;92.07
44872;BME280;30602;51.060;17.226;2022-12-07T18:11:21;100975.67;;;1.46;91.83
44872;BME280;30602;51.060;17.226;2022-12-07T18:14:52;100971.80;;;1.49;91.94
44872;BME280;30602;51.060;17.226;2022-12-07T18:18:02;100973.82;;;1.47;91.60
44872;BME280;30602;51.060;17.226;2022-12-07T18:21:30;100971.59;;;1.30;91.70
44872;BME280;30602;51.060;17.226;2022-12-07T18:25:10;100979.59;;;1.38;91.85
44872;BME280;30602;51.060;17.226;2022-12-07T18:32:46;100978.49;;;1.36;90.81
44872;BME280;30602;51.060;17.226;2022-12-07T18:36:04;100974.30;;;1.36;90.81
44872;BME280;30602;51.060;17.226;2022-12-07T18:39:36;100966.97;;;1.33;90.95
44872;BME280;30602;51.060;17.226;2022-12-07T18:43:14;100973.82;;;1.23;91.43
44872;BME280;30602;51.060;17.226;2022-12-07T18:46:43;100973.58;;;1.19;91.90
44872;BME280;30602;51.060;17.226;2022-12-07T18:50:04;100976.68;;;1.09;91.73
44872;BME280;30602;51.060;17.226;2022-12-07T18:53:33;100975.59;;;1.12;92.19
44872;BME280;30602;51.060;17.226;2022-12-07T18:56:51;100973.73;;;1.10;91.76
44872;BME280;30602;51.060;17.226;2022-12-07T19:00:48;100977.04;;;1.04;91.87
44872;BME280;30602;51.060;17.226;2022-12-07T19:04:20;100976.37;;;1.05;92.01
44872;BME280;30602;51.060;17.226;2022-12-07T19:07:39;100977.28;;;1.05;92.05
44872;BME280;30602;51.060;17.226;2022-12-07T19:14:53;100978.97;;;0.95;92.22
44872;BME280;30602;51.060;17.226;2022-12-07T19:18:26;100981.52;;;1.00;92.49
44872;BME280;30602;51.060;17.226;2022-12-07T19:22:25;100980.02;;;1.00;92.09
44872;BME280;30602;51.060;17.226;2022-12-07T19:25:38;100982.68;;;1.00;91.80
44872;BME280;30602;51.060;17.226;2022-12-07T19:28:56;100971.37;;;0.75;92.14
44872;BME280;30602;51.060;17.226;2022-12-07T19:32:09;100979.91;;;0.75;92.71
44872;BME280;30602;51.060;17.226;2022-12-07T19:35:47;100982.94;;;0.73;93.01
44872;BME280;30602;51.060;17.226;2022-12-07T19:39:03;100983.07;;;0.58;93.12
44872;BME280;30602;51.060;17.226;2022-12-07T19:42:36;100983.71;;;0.60;93.42
44872;BME280;30602;51.060;17.226;2022-12-07T19:46:08;100983.53;;;0.48;93.56
44872;BME280;30602;51.060;17.226;2022-12-07T19:49:51;100991.80;;;0.57;93.87
44872;BME280;30602;51.060;17.226;2022-12-07T19:53:05;100993.32;;;0.50;93.89
44872;BME280;30602;51.060;17.226;2022-12-07T19:56:33;100986.69;;;0.53;94.30
44872;BME280;30602;51.060;17.226;2022-12-07T19:59:48;100987.35;;;0.50;94.40
44872;BME280;30602;51.060;17.226;2022-12-07T20:03:02;100982.38;;;0.48;94.46
44872;BME280;30602;51.060;17.226;2022-12-07T20:07:03;100985.03;;;0.54;94.58
44872;BME280;30602;51.060;17.226;2022-12-07T20:10:45;100985.17;;;0.58;94.58
44872;BME280;30602;51.060;17.226;2022-12-07T20:14:16;100977.72;;;0.62;94.96
44872;BME280;30602;51.060;17.226;2022-12-07T20:17:53;100982.63;;;0.70;95.04
44872;BME280;30602;51.060;17.226;2022-12-07T20:21:08;100982.37;;;0.68;95.16
44872;BME280;30602;51.060;17.226;2022-12-07T20:24:36;100981.34;;;0.77;95.13
44872;BME280;30602;51.060;17.226;2022-12-07T20:27:47;100982.52;;;0.88;94.85
44872;BME280;30602;51.060;17.226;2022-12-07T20:31:18;100982.51;;;1.04;94.32
44872;BME280;30602;51.060;17.226;2022-12-07T20:34:29;100983.14;;;1.10;93.51
44872;BME280;30602;51.060;17.226;2022-12-07T20:37:38;100983.95;;;1.10;93.46
44872;BME280;30602;51.060;17.226;2022-12-07T20:41:00;100985.16;;;1.06;93.47
44872;BME280;30602;51.060;17.226;2022-12-07T20:45:05;100987.27;;;1.10;93.42
44872;BME280;30602;51.060;17.226;2022-12-07T20:48:22;100988.30;;;1.08;93.37
44872;BME280;30602;51.060;17.226;2022-12-07T20:52:26;100989.87;;;1.05;93.60
44872;BME280;30602;51.060;17.226;2022-12-07T20:55:51;100993.70;;;1.09;93.70
44872;BME280;30602;51.060;17.226;2022-12-07T20:59:27;100997.88;;;1.06;93.92
44872;BME280;30602;51.060;17.226;2022-12-07T21:02:59;100995.22;;;1.13;93.99
44872;BME280;30602;51.060;17.226;2022-12-07T21:06:16;100993.47;;;1.18;94.10
44872;BME280;30602;51.060;17.226;2022-12-07T21:10:13;100985.46;;;1.25;94.17
44872;BME280;30602;51.060;17.226;2022-12-07T21:13:48;100990.50;;;1.36;93.94
44872;BME280;30602;51.060;17.226;2022-12-07T21:17:17;100989.37;;;1.49;93.66
44872;BME280;30602;51.060;17.226;2022-12-07T21:20:27;100989.48;;;1.63;93.02
44872;BME280;30602;51.060;17.226;2022-12-07T21:24:34;100983.95;;;1.70;91.97
44872;BME280;30602;51.060;17.226;2022-12-07T21:28:19;100987.55;;;1.58;91.02
44872;BME280;30602;51.060;17.226;2022-12-07T21:32:13;100986.03;;;1.69;90.60
44872;BME280;30602;51.060;17.226;2022-12-07T21:35:22;100985.74;;;1.71;90.08
44872;BME280;30602;51.060;17.226;2022-12-07T21:39:05;100975.99;;;1.62;90.35
44872;BME280;30602;51.060;17.226;2022-12-07T21:42:13;100989.25;;;1.80;90.02
44872;BME280;30602;51.060;17.226;2022-12-07T21:45:24;100984.47;;;1.78;89.76
44872;BME280;30602;51.060;17.226;2022-12-07T21:48:54;101003.93;;;1.89;89.88
44872;BME280;30602;51.060;17.226;2022-12-07T21:52:15;101003.13;;;1.91;89.56
44872;BME280;30602;51.060;17.226;2022-12-07T21:55:25;101009.90;;;1.94;89.23
44872;BME280;30602;51.060;17.226;2022-12-07T21:59:06;101010.61;;;1.95;89.47
44872;BME280;30602;51.060;17.226;2022-12-07T22:02:19;101008.15;;;1.98;89.72
44872;BME280;30602;51.060;17.226;2022-12-07T22:05:37;101008.12;;;2.03;89.98